sensor_id;sensor_type;location;lat;lon;timestamp;pressure;altitude;pressure_sealevel;temperature;humidity
3444;BME280;1736;52.068;6.968;2023-04-28T00:01:49;100923.75;;;9.11;52.09
3444;BME280;1736;52.068;6.968;2023-04-28T00:04:16;100928.22;;;9.10;51.94
3444;BME280;1736;52.068;6.968;2023-04-28T00:06:42;100928.13;;;9.12;51.58
3444;BME280;1736;52.068;6.968;2023-04-28T00:09:09;100921.53;;;9.17;51.78
3444;BME280;1736;52.068;6.968;2023-04-28T00:11:36;100910.88;;;9.06;52.22
3444;BME280;1736;52.068;6.968;2023-04-28T00:14:04;100915.97;;;9.09;52.57
3444;BME280;1736;52.068;6.968;2023-04-28T00:16:31;100917.00;;;9.07;52.46
3444;BME280;1736;52.068;6.968;2023-04-28T00:18:57;100923.38;;;9.04;52.48
3444;BME280;1736;52.068;6.968;2023-04-28T00:21:24;100907.22;;;8.96;52.97
3444;BME280;1736;52.068;6.968;2023-04-28T00:23:50;100892.75;;;8.89;52.95
3444;BME280;1736;52.068;6.968;2023-04-28T00:26:17;100879.25;;;8.81;53.18
3444;BME280;1736;52.068;6.968;2023-04-28T00:28:43;100889.75;;;8.94;53.59
3444;BME280;1736;52.068;6.968;2023-04-28T00:31:11;100887.47;;;8.89;53.16
3444;BME280;1736;52.068;6.968;2023-04-28T00:33:38;100886.00;;;8.85;53.04
3444;BME280;1736;52.068;6.968;2023-04-28T00:36:05;100880.94;;;8.82;53.91
3444;BME280;1736;52.068;6.968;2023-04-28T00:38:32;100884.97;;;8.75;54.28
3444;BME280;1736;52.068;6.968;2023-04-28T00:41:00;100881.25;;;8.78;53.94
3444;BME280;1736;52.068;6.968;2023-04-28T00:43:26;100866.72;;;8.83;53.78
3444;BME280;1736;52.068;6.968;2023-04-28T00:45:53;100856.63;;;8.77;54.03
3444;BME280;1736;52.068;6.968;2023-04-28T00:48:21;100855.97;;;8.74;54.84
3444;BME280;1736;52.068;6.968;2023-04-28T00:50:48;100859.19;;;8.66;54.64
3444;BME280;1736;52.068;6.968;2023-04-28T00:53:14;100857.94;;;8.59;54.68
3444;BME280;1736;52.068;6.968;2023-04-28T00:55:41;100863.59;;;8.55;56.15
3444;BME280;1736;52.068;6.968;2023-04-28T00:58:08;100864.47;;;8.66;54.94
3444;BME280;1736;52.068;6.968;2023-04-28T01:00:35;100855.59;;;8.67;55.28
3444;BME280;1736;52.068;6.968;2023-04-28T01:03:02;100849.91;;;8.61;55.66
3444;BME280;1736;52.068;6.968;2023-04-28T01:05:30;100839.09;;;8.64;55.56
3444;BME280;1736;52.068;6.968;2023-04-28T01:07:56;100836.09;;;8.68;55.35
3444;BME280;1736;52.068;6.968;2023-04-28T01:10:23;100835.06;;;8.71;55.44
3444;BME280;1736;52.068;6.968;2023-04-28T01:12:49;100839.50;;;8.70;55.71
3444;BME280;1736;52.068;6.968;2023-04-28T01:15:17;100840.66;;;8.66;56.47
3444;BME280;1736;52.068;6.968;2023-04-28T01:17:44;100837.56;;;8.72;56.11
3444;BME280;1736;52.068;6.968;2023-04-28T01:20:11;100823.84;;;8.67;56.61
3444;BME280;1736;52.068;6.968;2023-04-28T01:22:39;100826.84;;;8.63;56.70
3444;BME280;1736;52.068;6.968;2023-04-28T01:25:07;100819.00;;;8.61;56.74
3444;BME280;1736;52.068;6.968;2023-04-28T01:27:34;100826.66;;;8.53;56.88
3444;BME280;1736;52.068;6.968;2023-04-28T01:30:00;100820.13;;;8.46;57.79
3444;BME280;1736;52.068;6.968;2023-04-28T01:32:27;100816.50;;;8.47;57.75
3444;BME280;1736;52.068;6.968;2023-04-28T01:34:53;100822.03;;;8.44;58.16
3444;BME280;1736;52.068;6.968;2023-04-28T01:37:20;100819.72;;;8.40;58.22
3444;BME280;1736;52.068;6.968;2023-04-28T01:39:46;100806.78;;;8.48;57.79
3444;BME280;1736;52.068;6.968;2023-04-28T01:42:14;100796.81;;;8.51;57.91
3444;BME280;1736;52.068;6.968;2023-04-28T01:44:41;100788.38;;;8.46;58.04
3444;BME280;1736;52.068;6.968;2023-04-28T01:47:07;100789.47;;;8.44;57.95
3444;BME280;1736;52.068;6.968;2023-04-28T01:49:33;100791.41;;;8.53;58.06
3444;BME280;1736;52.068;6.968;2023-04-28T01:52:00;100782.41;;;8.55;57.70
3444;BME280;1736;52.068;6.968;2023-04-28T01:54:26;100777.19;;;8.43;58.39
3444;BME280;1736;52.068;6.968;2023-04-28T01:56:53;100781.91;;;8.50;58.32
3444;BME280;1736;52.068;6.968;2023-04-28T01:59:21;100778.88;;;8.44;58.91
3444;BME280;1736;52.068;6.968;2023-04-28T02:01:48;100791.81;;;8.59;58.79
3444;BME280;1736;52.068;6.968;2023-04-28T02:04:14;100790.88;;;8.60;58.02
3444;BME280;1736;52.068;6.968;2023-04-28T02:06:41;100785.16;;;8.54;58.58
3444;BME280;1736;52.068;6.968;2023-04-28T02:09:08;100782.81;;;8.62;58.88
3444;BME280;1736;52.068;6.968;2023-04-28T02:11:34;100789.63;;;8.53;58.59
3444;BME280;1736;52.068;6.968;2023-04-28T02:14:01;100789.41;;;8.56;58.61
3444;BME280;1736;52.068;6.968;2023-04-28T02:16:29;100784.16;;;8.67;58.31
3444;BME280;1736;52.068;6.968;2023-04-28T02:18:55;100781.00;;;8.62;58.39
3444;BME280;1736;52.068;6.968;2023-04-28T02:21:22;100780.03;;;8.63;58.46
3444;BME280;1736;52.068;6.968;2023-04-28T02:23:49;100781.75;;;8.64;58.20
3444;BME280;1736;52.068;6.968;2023-04-28T02:26:23;100775.72;;;8.62;58.48
3444;BME280;1736;52.068;6.968;2023-04-28T02:28:50;100769.56;;;8.62;58.56
3444;BME280;1736;52.068;6.968;2023-04-28T02:31:16;100766.81;;;8.63;58.91
3444;BME280;1736;52.068;6.968;2023-04-28T02:33:44;100764.19;;;8.63;59.02
3444;BME280;1736;52.068;6.968;2023-04-28T02:36:24;100761.81;;;8.71;58.75
3444;BME280;1736;52.068;6.968;2023-04-28T02:38:52;100757.44;;;8.59;59.25
3444;BME280;1736;52.068;6.968;2023-04-28T02:41:18;100763.47;;;8.72;59.01
3444;BME280;1736;52.068;6.968;2023-04-28T02:43:45;100769.75;;;8.71;58.83
3444;BME280;1736;52.068;6.968;2023-04-28T02:46:11;100763.75;;;8.69;59.52
3444;BME280;1736;52.068;6.968;2023-04-28T02:48:38;100760.34;;;8.67;60.14
3444;BME280;1736;52.068;6.968;2023-04-28T02:51:06;100759.75;;;8.64;60.20
3444;BME280;1736;52.068;6.968;2023-04-28T02:53:32;100762.28;;;8.65;60.76
3444;BME280;1736;52.068;6.968;2023-04-28T02:55:59;100761.63;;;8.62;61.96
3444;BME280;1736;52.068;6.968;2023-04-28T02:58:28;100758.56;;;8.68;62.94
3444;BME280;1736;52.068;6.968;2023-04-28T03:00:55;100760.59;;;8.64;62.85
3444;BME280;1736;52.068;6.968;2023-04-28T03:03:21;100755.75;;;8.58;64.30
3444;BME280;1736;52.068;6.968;2023-04-28T03:05:47;100748.78;;;8.57;64.97
3444;BME280;1736;52.068;6.968;2023-04-28T03:08:15;100745.06;;;8.60;63.68
3444;BME280;1736;52.068;6.968;2023-04-28T03:10:42;100746.41;;;8.65;64.02
3444;BME280;1736;52.068;6.968;2023-04-28T03:13:08;100741.22;;;8.64;64.00
3444;BME280;1736;52.068;6.968;2023-04-28T03:15:35;100735.06;;;8.63;63.73
3444;BME280;1736;52.068;6.968;2023-04-28T03:18:02;100734.59;;;8.58;63.30
3444;BME280;1736;52.068;6.968;2023-04-28T03:20:28;100731.22;;;8.56;63.29
3444;BME280;1736;52.068;6.968;2023-04-28T03:22:55;100732.91;;;8.57;62.86
3444;BME280;1736;52.068;6.968;2023-04-28T03:25:22;100728.84;;;8.64;62.75
3444;BME280;1736;52.068;6.968;2023-04-28T03:27:49;100728.09;;;8.62;63.03
3444;BME280;1736;52.068;6.968;2023-04-28T03:30:15;100724.88;;;8.70;63.40
3444;BME280;1736;52.068;6.968;2023-04-28T03:32:42;100719.94;;;8.65;63.43
3444;BME280;1736;52.068;6.968;2023-04-28T03:35:08;100712.03;;;8.65;63.67
3444;BME280;1736;52.068;6.968;2023-04-28T03:37:35;100713.91;;;8.63;63.30
3444;BME280;1736;52.068;6.968;2023-04-28T03:40:01;100705.97;;;8.63;63.71
3444;BME280;1736;52.068;6.968;2023-04-28T03:42:29;100704.09;;;8.65;63.57
3444;BME280;1736;52.068;6.968;2023-04-28T03:44:56;100694.94;;;8.69;63.90
3444;BME280;1736;52.068;6.968;2023-04-28T03:47:22;100692.31;;;8.69;63.80
3444;BME280;1736;52.068;6.968;2023-04-28T03:49:49;100673.91;;;8.68;64.37
3444;BME280;1736;52.068;6.968;2023-04-28T03:52:16;100676.19;;;8.61;64.97
3444;BME280;1736;52.068;6.968;2023-04-28T03:54:42;100666.03;;;8.55;65.66
3444;BME280;1736;52.068;6.968;2023-04-28T03:57:09;100667.13;;;8.53;66.83
3444;BME280;1736;52.068;6.968;2023-04-28T03:59:37;100659.06;;;8.54;66.78
3444;BME280;1736;52.068;6.968;2023-04-28T04:02:03;100660.38;;;8.49;66.84
3444;BME280;1736;52.068;6.968;2023-04-28T04:04:30;100661.81;;;8.53;66.86
3444;BME280;1736;52.068;6.968;2023-04-28T04:06:56;100655.22;;;8.58;66.94
3444;BME280;1736;52.068;6.968;2023-04-28T04:09:23;100660.88;;;8.54;66.82
3444;BME280;1736;52.068;6.968;2023-04-28T04:11:49;100661.00;;;8.52;68.03
3444;BME280;1736;52.068;6.968;2023-04-28T04:14:16;100654.00;;;8.40;69.00
3444;BME280;1736;52.068;6.968;2023-04-28T04:16:46;100650.66;;;8.49;69.04
3444;BME280;1736;52.068;6.968;2023-04-28T04:19:12;100661.22;;;8.49;69.95
3444;BME280;1736;52.068;6.968;2023-04-28T04:21:39;100655.09;;;8.49;70.77
3444;BME280;1736;52.068;6.968;2023-04-28T04:24:06;100665.34;;;8.53;71.70
3444;BME280;1736;52.068;6.968;2023-04-28T04:26:32;100663.50;;;8.54;71.77
3444;BME280;1736;52.068;6.968;2023-04-28T04:28:59;100665.66;;;8.49;71.90
3444;BME280;1736;52.068;6.968;2023-04-28T04:31:25;100671.06;;;8.47;72.17
3444;BME280;1736;52.068;6.968;2023-04-28T04:33:53;100672.53;;;8.51;72.77
3444;BME280;1736;52.068;6.968;2023-04-28T04:36:26;100676.63;;;8.55;72.41
3444;BME280;1736;52.068;6.968;2023-04-28T04:38:53;100670.03;;;8.61;72.09
3444;BME280;1736;52.068;6.968;2023-04-28T04:41:19;100668.72;;;8.66;73.46
3444;BME280;1736;52.068;6.968;2023-04-28T04:43:46;100657.66;;;8.61;73.70
3444;BME280;1736;52.068;6.968;2023-04-28T04:46:13;100652.25;;;8.63;73.77
3444;BME280;1736;52.068;6.968;2023-04-28T04:48:40;100641.78;;;8.61;74.51
3444;BME280;1736;52.068;6.968;2023-04-28T04:51:07;100642.50;;;8.63;75.37
3444;BME280;1736;52.068;6.968;2023-04-28T04:53:34;100648.53;;;8.65;75.80
3444;BME280;1736;52.068;6.968;2023-04-28T04:56:01;100648.16;;;8.70;75.28
3444;BME280;1736;52.068;6.968;2023-04-28T04:58:27;100652.63;;;8.69;76.51
3444;BME280;1736;52.068;6.968;2023-04-28T05:00:54;100648.78;;;8.73;77.45
3444;BME280;1736;52.068;6.968;2023-04-28T05:03:20;100644.69;;;8.69;77.94
3444;BME280;1736;52.068;6.968;2023-04-28T05:05:47;100644.22;;;8.64;79.81
3444;BME280;1736;52.068;6.968;2023-04-28T05:08:15;100640.22;;;8.59;81.79
3444;BME280;1736;52.068;6.968;2023-04-28T05:10:41;100645.50;;;8.59;81.75
3444;BME280;1736;52.068;6.968;2023-04-28T05:13:08;100636.59;;;8.60;83.29
3444;BME280;1736;52.068;6.968;2023-04-28T05:15:34;100635.69;;;8.72;84.59
3444;BME280;1736;52.068;6.968;2023-04-28T05:18:01;100635.31;;;8.76;84.50
3444;BME280;1736;52.068;6.968;2023-04-28T05:20:33;100640.47;;;8.78;84.66
3444;BME280;1736;52.068;6.968;2023-04-28T05:23:00;100627.03;;;8.81;85.62
3444;BME280;1736;52.068;6.968;2023-04-28T05:25:28;100634.25;;;8.90;85.53
3444;BME280;1736;52.068;6.968;2023-04-28T05:27:55;100633.28;;;9.02;84.98
3444;BME280;1736;52.068;6.968;2023-04-28T05:30:21;100634.72;;;9.06;84.78
3444;BME280;1736;52.068;6.968;2023-04-28T05:32:48;100627.66;;;9.17;83.88
3444;BME280;1736;52.068;6.968;2023-04-28T05:35:14;100640.38;;;9.12;85.16
3444;BME280;1736;52.068;6.968;2023-04-28T05:37:41;100630.66;;;9.13;85.13
3444;BME280;1736;52.068;6.968;2023-04-28T05:40:09;100622.13;;;9.09;85.93
3444;BME280;1736;52.068;6.968;2023-04-28T05:42:38;100614.78;;;9.13;86.15
3444;BME280;1736;52.068;6.968;2023-04-28T05:45:05;100603.09;;;9.15;86.37
3444;BME280;1736;52.068;6.968;2023-04-28T05:47:32;100601.53;;;9.24;85.58
3444;BME280;1736;52.068;6.968;2023-04-28T05:49:58;100604.16;;;9.35;85.47
3444;BME280;1736;52.068;6.968;2023-04-28T05:52:25;100610.53;;;9.32;86.08
3444;BME280;1736;52.068;6.968;2023-04-28T05:54:51;100612.22;;;9.33;86.27
3444;BME280;1736;52.068;6.968;2023-04-28T05:57:18;100607.66;;;9.35;86.50
3444;BME280;1736;52.068;6.968;2023-04-28T05:59:46;100602.34;;;9.35;87.34
3444;BME280;1736;52.068;6.968;2023-04-28T06:02:13;100603.06;;;9.37;87.16
3444;BME280;1736;52.068;6.968;2023-04-28T06:04:39;100592.00;;;9.43;87.61
3444;BME280;1736;52.068;6.968;2023-04-28T06:07:06;100592.69;;;9.45;88.22
3444;BME280;1736;52.068;6.968;2023-04-28T06:09:33;100591.38;;;9.51;88.81
3444;BME280;1736;52.068;6.968;2023-04-28T06:11:59;100586.69;;;9.54;88.98
3444;BME280;1736;52.068;6.968;2023-04-28T06:14:26;100592.19;;;9.62;88.89
3444;BME280;1736;52.068;6.968;2023-04-28T06:16:54;100585.91;;;9.74;88.84
3444;BME280;1736;52.068;6.968;2023-04-28T06:19:20;100577.44;;;9.80;88.65
3444;BME280;1736;52.068;6.968;2023-04-28T06:21:47;100573.78;;;9.92;88.50
3444;BME280;1736;52.068;6.968;2023-04-28T06:24:14;100574.47;;;10.05;87.93
3444;BME280;1736;52.068;6.968;2023-04-28T06:26:41;100553.59;;;10.12;87.76
3444;BME280;1736;52.068;6.968;2023-04-28T06:29:07;100546.69;;;10.20;87.56
3444;BME280;1736;52.068;6.968;2023-04-28T06:31:34;100554.06;;;10.37;87.29
3444;BME280;1736;52.068;6.968;2023-04-28T06:34:02;100558.84;;;10.43;87.25
3444;BME280;1736;52.068;6.968;2023-04-28T06:36:28;100555.59;;;10.61;86.54
3444;BME280;1736;52.068;6.968;2023-04-28T06:38:55;100557.81;;;10.56;87.17
3444;BME280;1736;52.068;6.968;2023-04-28T06:41:21;100578.31;;;10.74;85.97
3444;BME280;1736;52.068;6.968;2023-04-28T06:43:48;100585.09;;;10.67;86.66
3444;BME280;1736;52.068;6.968;2023-04-28T06:46:15;100592.75;;;10.61;87.44
3444;BME280;1736;52.068;6.968;2023-04-28T06:48:41;100589.38;;;10.58;87.64
3444;BME280;1736;52.068;6.968;2023-04-28T06:51:09;100592.47;;;10.63;87.33
3444;BME280;1736;52.068;6.968;2023-04-28T06:53:36;100584.19;;;10.57;87.76
3444;BME280;1736;52.068;6.968;2023-04-28T06:56:02;100577.88;;;10.48;88.25
3444;BME280;1736;52.068;6.968;2023-04-28T06:58:29;100583.88;;;10.50;88.59
3444;BME280;1736;52.068;6.968;2023-04-28T07:00:56;100574.31;;;10.59;88.88
3444;BME280;1736;52.068;6.968;2023-04-28T07:03:22;100583.56;;;10.65;88.69
3444;BME280;1736;52.068;6.968;2023-04-28T07:05:49;100584.25;;;10.67;88.76
3444;BME280;1736;52.068;6.968;2023-04-28T07:08:17;100588.75;;;10.66;89.09
3444;BME280;1736;52.068;6.968;2023-04-28T07:10:43;100587.81;;;10.77;88.58
3444;BME280;1736;52.068;6.968;2023-04-28T07:13:10;100585.59;;;10.82;87.98
3444;BME280;1736;52.068;6.968;2023-04-28T07:15:36;100576.41;;;10.86;88.49
3444;BME280;1736;52.068;6.968;2023-04-28T07:18:03;100582.56;;;10.86;88.60
3444;BME280;1736;52.068;6.968;2023-04-28T07:20:29;100588.00;;;10.85;88.75
3444;BME280;1736;52.068;6.968;2023-04-28T07:22:56;100597.38;;;10.89;88.77
3444;BME280;1736;52.068;6.968;2023-04-28T07:25:23;100590.09;;;10.91;89.03
3444;BME280;1736;52.068;6.968;2023-04-28T07:27:50;100597.94;;;10.92;88.83
3444;BME280;1736;52.068;6.968;2023-04-28T07:30:18;100596.41;;;10.90;88.83
3444;BME280;1736;52.068;6.968;2023-04-28T07:32:45;100595.97;;;10.85;89.79
3444;BME280;1736;52.068;6.968;2023-04-28T07:35:11;100576.66;;;10.83;91.00
3444;BME280;1736;52.068;6.968;2023-04-28T07:37:37;100581.97;;;10.83;91.98
3444;BME280;1736;52.068;6.968;2023-04-28T07:40:05;100580.53;;;10.79;93.19
3444;BME280;1736;52.068;6.968;2023-04-28T07:42:33;100565.41;;;10.70;94.88
3444;BME280;1736;52.068;6.968;2023-04-28T07:45:00;100563.69;;;10.59;97.29
3444;BME280;1736;52.068;6.968;2023-04-28T07:47:26;100573.97;;;10.52;98.49
3444;BME280;1736;52.068;6.968;2023-04-28T07:49:53;100589.47;;;10.48;99.29
3444;BME280;1736;52.068;6.968;2023-04-28T07:52:19;100586.66;;;10.28;100.00
3444;BME280;1736;52.068;6.968;2023-04-28T07:54:46;100576.84;;;10.19;100.00
3444;BME280;1736;52.068;6.968;2023-04-28T07:57:13;100578.31;;;10.12;100.00
3444;BME280;1736;52.068;6.968;2023-04-28T07:59:41;100574.22;;;10.08;100.00
3444;BME280;1736;52.068;6.968;2023-04-28T08:02:07;100575.09;;;10.09;100.00
3444;BME280;1736;52.068;6.968;2023-04-28T08:04:37;100577.13;;;10.05;100.00
3444;BME280;1736;52.068;6.968;2023-04-28T08:07:04;100581.44;;;10.06;100.00
3444;BME280;1736;52.068;6.968;2023-04-28T08:09:30;100582.88;;;10.10;100.00
3444;BME280;1736;52.068;6.968;2023-04-28T08:11:57;100580.38;;;10.09;100.00
3444;BME280;1736;52.068;6.968;2023-04-28T08:14:25;100579.84;;;10.15;100.00
3444;BME280;1736;52.068;6.968;2023-04-28T08:16:53;100577.34;;;10.13;100.00
3444;BME280;1736;52.068;6.968;2023-04-28T08:19:19;100572.63;;;10.17;100.00
3444;BME280;1736;52.068;6.968;2023-04-28T08:21:46;100574.81;;;10.32;100.00
3444;BME280;1736;52.068;6.968;2023-04-28T08:24:12;100573.06;;;10.42;100.00
3444;BME280;1736;52.068;6.968;2023-04-28T08:26:39;100568.94;;;10.49;100.00
3444;BME280;1736;52.068;6.968;2023-04-28T08:29:06;100570.09;;;10.57;100.00
3444;BME280;1736;52.068;6.968;2023-04-28T08:31:33;100561.53;;;10.74;100.00
3444;BME280;1736;52.068;6.968;2023-04-28T08:34:08;100561.34;;;10.96;100.00
3444;BME280;1736;52.068;6.968;2023-04-28T08:36:34;100571.53;;;11.21;100.00
3444;BME280;1736;52.068;6.968;2023-04-28T08:39:01;100569.28;;;11.26;100.00
3444;BME280;1736;52.068;6.968;2023-04-28T08:41:31;100572.13;;;11.53;100.00
3444;BME280;1736;52.068;6.968;2023-04-28T08:43:58;100566.81;;;11.53;100.00
3444;BME280;1736;52.068;6.968;2023-04-28T08:46:26;100572.78;;;11.66;99.92
3444;BME280;1736;52.068;6.968;2023-04-28T08:48:57;100569.69;;;11.80;99.44
3444;BME280;1736;52.068;6.968;2023-04-28T08:51:32;100569.66;;;11.61;99.60
3444;BME280;1736;52.068;6.968;2023-04-28T08:54:01;100563.81;;;11.86;99.66
3444;BME280;1736;52.068;6.968;2023-04-28T08:56:31;100564.97;;;12.12;98.94
3444;BME280;1736;52.068;6.968;2023-04-28T08:59:01;100562.97;;;12.33;97.68
3444;BME280;1736;52.068;6.968;2023-04-28T09:01:28;100569.94;;;12.53;96.91
3444;BME280;1736;52.068;6.968;2023-04-28T09:03:55;100559.28;;;12.53;96.03
3444;BME280;1736;52.068;6.968;2023-04-28T09:06:21;100551.66;;;12.77;95.39
3444;BME280;1736;52.068;6.968;2023-04-28T09:08:49;100559.41;;;13.07;94.88
3444;BME280;1736;52.068;6.968;2023-04-28T09:11:16;100544.13;;;13.09;93.95
3444;BME280;1736;52.068;6.968;2023-04-28T09:13:43;100544.25;;;13.17;93.86
3444;BME280;1736;52.068;6.968;2023-04-28T09:16:10;100543.59;;;13.32;94.05
3444;BME280;1736;52.068;6.968;2023-04-28T09:18:37;100541.00;;;13.40;93.72
3444;BME280;1736;52.068;6.968;2023-04-28T09:21:05;100537.16;;;13.52;92.00
3444;BME280;1736;52.068;6.968;2023-04-28T09:23:31;100537.94;;;13.80;92.02
3444;BME280;1736;52.068;6.968;2023-04-28T09:26:01;100538.31;;;13.85;89.53
3444;BME280;1736;52.068;6.968;2023-04-28T09:28:28;100529.63;;;14.18;90.93
3444;BME280;1736;52.068;6.968;2023-04-28T09:30:55;100533.28;;;14.60;89.10
3444;BME280;1736;52.068;6.968;2023-04-28T09:33:21;100537.06;;;14.75;86.52
3444;BME280;1736;52.068;6.968;2023-04-28T09:35:48;100531.22;;;15.13;84.08
3444;BME280;1736;52.068;6.968;2023-04-28T09:38:15;100534.63;;;15.31;81.88
3444;BME280;1736;52.068;6.968;2023-04-28T09:40:51;100538.59;;;15.27;81.26
3444;BME280;1736;52.068;6.968;2023-04-28T09:43:30;100538.59;;;15.27;81.26
3444;BME280;1736;52.068;6.968;2023-04-28T09:45:59;100533.25;;;15.69;79.38
3444;BME280;1736;52.068;6.968;2023-04-28T09:48:27;100542.16;;;15.77;78.92
3444;BME280;1736;52.068;6.968;2023-04-28T09:50:54;100540.44;;;15.60;77.76
3444;BME280;1736;52.068;6.968;2023-04-28T09:53:22;100526.06;;;15.61;78.26
3444;BME280;1736;52.068;6.968;2023-04-28T09:55:49;100519.22;;;15.67;77.44
3444;BME280;1736;52.068;6.968;2023-04-28T09:58:18;100528.09;;;15.83;78.13
3444;BME280;1736;52.068;6.968;2023-04-28T10:00:51;100526.28;;;16.16;77.42
3444;BME280;1736;52.068;6.968;2023-04-28T10:03:20;100527.47;;;15.97;76.38
3444;BME280;1736;52.068;6.968;2023-04-28T10:05:47;100533.16;;;16.18;76.41
3444;BME280;1736;52.068;6.968;2023-04-28T10:08:14;100524.09;;;16.11;76.36
3444;BME280;1736;52.068;6.968;2023-04-28T10:10:42;100520.09;;;16.15;75.55
3444;BME280;1736;52.068;6.968;2023-04-28T10:13:09;100516.75;;;16.05;76.12
3444;BME280;1736;52.068;6.968;2023-04-28T10:15:36;100512.53;;;16.27;75.46
3444;BME280;1736;52.068;6.968;2023-04-28T10:18:05;100511.34;;;16.61;73.78
3444;BME280;1736;52.068;6.968;2023-04-28T10:20:32;100513.94;;;16.93;73.92
3444;BME280;1736;52.068;6.968;2023-04-28T10:23:16;100509.59;;;16.92;72.63
3444;BME280;1736;52.068;6.968;2023-04-28T10:25:53;100505.88;;;17.01;71.65
3444;BME280;1736;52.068;6.968;2023-04-28T10:28:21;100497.34;;;16.98;72.29
3444;BME280;1736;52.068;6.968;2023-04-28T10:31:09;100504.25;;;16.92;72.68
3444;BME280;1736;52.068;6.968;2023-04-28T10:33:38;100496.03;;;16.94;72.37
3444;BME280;1736;52.068;6.968;2023-04-28T10:36:06;100488.53;;;16.81;72.73
3444;BME280;1736;52.068;6.968;2023-04-28T10:38:32;100491.34;;;16.88;73.45
3444;BME280;1736;52.068;6.968;2023-04-28T10:40:59;100487.16;;;16.85;73.40
3444;BME280;1736;52.068;6.968;2023-04-28T10:43:37;100487.31;;;16.92;73.19
3444;BME280;1736;52.068;6.968;2023-04-28T10:46:05;100488.09;;;17.08;75.40
3444;BME280;1736;52.068;6.968;2023-04-28T10:48:53;100486.94;;;17.03;74.87
3444;BME280;1736;52.068;6.968;2023-04-28T10:51:21;100487.09;;;17.01;73.50
3444;BME280;1736;52.068;6.968;2023-04-28T10:54:16;100489.34;;;17.28;75.06
3444;BME280;1736;52.068;6.968;2023-04-28T10:57:15;100482.88;;;17.45;74.81
3444;BME280;1736;52.068;6.968;2023-04-28T10:59:43;100487.75;;;17.50;74.18
3444;BME280;1736;52.068;6.968;2023-04-28T11:02:36;100485.47;;;17.84;72.73
3444;BME280;1736;52.068;6.968;2023-04-28T11:05:14;100477.25;;;17.85;72.47
3444;BME280;1736;52.068;6.968;2023-04-28T11:11:14;100470.75;;;17.57;75.17
3444;BME280;1736;52.068;6.968;2023-04-28T11:13:41;100471.41;;;17.59;75.07
3444;BME280;1736;52.068;6.968;2023-04-28T11:16:13;100471.59;;;17.58;74.55
3444;BME280;1736;52.068;6.968;2023-04-28T11:18:49;100469.59;;;17.21;74.72
3444;BME280;1736;52.068;6.968;2023-04-28T11:21:17;100463.16;;;17.30;74.63
3444;BME280;1736;52.068;6.968;2023-04-28T11:23:45;100461.75;;;17.12;75.83
3444;BME280;1736;52.068;6.968;2023-04-28T11:26:11;100468.44;;;17.16;77.67
3444;BME280;1736;52.068;6.968;2023-04-28T11:28:46;100465.78;;;17.08;79.49
3444;BME280;1736;52.068;6.968;2023-04-28T11:31:13;100469.22;;;16.94;79.30
3444;BME280;1736;52.068;6.968;2023-04-28T11:33:45;100475.16;;;16.65;80.97
3444;BME280;1736;52.068;6.968;2023-04-28T11:36:29;100476.94;;;16.18;85.48
3444;BME280;1736;52.068;6.968;2023-04-28T11:38:57;100474.91;;;16.12;87.71
3444;BME280;1736;52.068;6.968;2023-04-28T11:41:24;100465.22;;;15.95;90.21
3444;BME280;1736;52.068;6.968;2023-04-28T11:43:51;100460.19;;;16.00;90.44
3444;BME280;1736;52.068;6.968;2023-04-28T11:46:18;100460.03;;;16.02;89.44
3444;BME280;1736;52.068;6.968;2023-04-28T11:48:46;100463.84;;;16.47;88.16
3444;BME280;1736;52.068;6.968;2023-04-28T11:51:33;100453.34;;;16.84;84.25
3444;BME280;1736;52.068;6.968;2023-04-28T11:54:01;100457.09;;;17.36;81.32
3444;BME280;1736;52.068;6.968;2023-04-28T11:56:28;100459.19;;;16.88;81.82
3444;BME280;1736;52.068;6.968;2023-04-28T11:59:02;100464.13;;;16.68;82.58
3444;BME280;1736;52.068;6.968;2023-04-28T12:01:30;100469.66;;;16.59;83.34
3444;BME280;1736;52.068;6.968;2023-04-28T12:03:57;100468.34;;;16.55;83.98
3444;BME280;1736;52.068;6.968;2023-04-28T12:06:24;100471.19;;;16.37;85.04
3444;BME280;1736;52.068;6.968;2023-04-28T12:08:51;100466.38;;;16.25;86.39
3444;BME280;1736;52.068;6.968;2023-04-28T12:11:18;100479.59;;;16.10;88.43
3444;BME280;1736;52.068;6.968;2023-04-28T12:14:06;100466.72;;;15.82;90.59
3444;BME280;1736;52.068;6.968;2023-04-28T12:16:42;100470.56;;;15.95;90.56
3444;BME280;1736;52.068;6.968;2023-04-28T12:19:10;100473.22;;;15.71;91.50
3444;BME280;1736;52.068;6.968;2023-04-28T12:21:37;100476.44;;;15.67;92.15
3444;BME280;1736;52.068;6.968;2023-04-28T12:24:16;100477.75;;;15.63;94.48
3444;BME280;1736;52.068;6.968;2023-04-28T12:26:43;100472.03;;;15.58;95.95
3444;BME280;1736;52.068;6.968;2023-04-28T12:29:34;100466.19;;;15.54;97.09
3444;BME280;1736;52.068;6.968;2023-04-28T12:32:01;100473.56;;;15.52;96.71
3444;BME280;1736;52.068;6.968;2023-04-28T12:34:28;100478.22;;;15.50;97.05
3444;BME280;1736;52.068;6.968;2023-04-28T12:36:55;100476.91;;;15.70;97.59
3444;BME280;1736;52.068;6.968;2023-04-28T12:39:23;100476.84;;;15.38;97.33
3444;BME280;1736;52.068;6.968;2023-04-28T12:41:51;100478.13;;;15.26;97.61
3444;BME280;1736;52.068;6.968;2023-04-28T12:44:17;100483.75;;;15.07;99.23
3444;BME280;1736;52.068;6.968;2023-04-28T12:46:44;100470.75;;;15.12;100.00
3444;BME280;1736;52.068;6.968;2023-04-28T12:49:11;100475.13;;;15.21;99.91
3444;BME280;1736;52.068;6.968;2023-04-28T12:51:38;100477.72;;;15.47;100.00
3444;BME280;1736;52.068;6.968;2023-04-28T12:54:04;100479.56;;;15.46;99.23
3444;BME280;1736;52.068;6.968;2023-04-28T12:56:33;100480.06;;;15.50;97.83
3444;BME280;1736;52.068;6.968;2023-04-28T12:58:59;100476.88;;;15.46;98.36
3444;BME280;1736;52.068;6.968;2023-04-28T13:01:26;100470.53;;;15.55;98.61
3444;BME280;1736;52.068;6.968;2023-04-28T13:03:53;100475.91;;;15.63;97.38
3444;BME280;1736;52.068;6.968;2023-04-28T13:06:20;100479.75;;;15.77;98.56
3444;BME280;1736;52.068;6.968;2023-04-28T13:08:46;100476.94;;;15.86;98.33
3444;BME280;1736;52.068;6.968;2023-04-28T13:11:13;100479.94;;;15.91;96.50
3444;BME280;1736;52.068;6.968;2023-04-28T13:13:42;100468.75;;;15.80;96.44
3444;BME280;1736;52.068;6.968;2023-04-28T13:16:09;100475.59;;;15.82;96.18
3444;BME280;1736;52.068;6.968;2023-04-28T13:18:36;100463.88;;;15.91;96.82
3444;BME280;1736;52.068;6.968;2023-04-28T13:21:03;100465.38;;;15.94;95.20
3444;BME280;1736;52.068;6.968;2023-04-28T13:23:30;100472.59;;;15.85;97.50